Time;durP1;ratioP1;P1;durP2;ratioP2;P2;SDS_P1;SDS_P2;PMS_P1;PMS_P2;Temp;Humidity;BMP_temperature;BMP_pressure;BME280_temperature;BME280_humidity;BME280_pressure;Samples;Min_cycle;Max_cycle;Signal;HPM_P1;HPM_P2
2022/10/15 00:02:14;;;;;;;22.85;21.00;;;;;;;;;;5245332;28;20017;-70
2022/10/15 00:04:45;;;;;;;19.63;18.02;;;;;;;;;;5227149;28;20024;-69
2022/10/15 00:07:15;;;;;;;22.15;20.25;;;;;;;;;;5230057;28;20460;-70
2022/10/15 00:09:45;;;;;;;23.27;21.02;;;;;;;;;;5249377;28;20086;-70
2022/10/15 00:12:15;;;;;;;24.80;20.30;;;;;;;;;;5231174;28;20124;-70
2022/10/15 00:14:46;;;;;;;20.90;19.17;;;;;;;;;;5230599;28;20472;-70
2022/10/15 00:17:16;;;;;;;21.02;19.10;;;;;;;;;;5231433;28;20020;-70
2022/10/15 00:19:46;;;;;;;22.17;20.35;;;;;;;;;;5230653;28;20030;-69
2022/10/15 00:22:16;;;;;;;21.08;19.52;;;;;;;;;;5231107;28;20450;-69
2022/10/15 00:24:47;;;;;;;24.02;21.95;;;;;;;;;;5248898;28;20021;-70
2022/10/15 00:27:17;;;;;;;21.15;19.65;;;;;;;;;;5230764;28;20024;-69
2022/10/15 00:29:47;;;;;;;22.70;20.45;;;;;;;;;;5230581;28;20040;-70
2022/10/15 00:32:17;;;;;;;22.60;20.45;;;;;;;;;;5230871;28;20388;-70
2022/10/15 00:34:48;;;;;;;21.92;18.70;;;;;;;;;;5230379;28;20047;-70
2022/10/15 00:37:19;;;;;;;24.17;21.73;;;;;;;;;;5230921;28;20392;-71
2022/10/15 00:39:50;;;;;;;20.60;18.67;;;;;;;;;;5230831;28;20025;-70
2022/10/15 00:42:20;;;;;;;20.65;18.95;;;;;;;;;;5230729;28;20036;-70
2022/10/15 00:44:50;;;;;;;22.00;20.20;;;;;;;;;;5248164;28;20048;-69
2022/10/15 00:47:24;;;;;;;21.02;19.20;;;;;;;;;;5230311;28;20341;-69
2022/10/15 00:50:14;;;;;;;21.70;19.88;;;;;;;;;;5230303;28;20013;-69
2022/10/15 00:52:50;;;;;;;22.05;20.40;;;;;;;;;;5229834;28;20036;-69
2022/10/15 00:55:27;;;;;;;20.10;18.25;;;;;;;;;;5229924;28;20029;-69
2022/10/15 00:57:59;;;;;;;21.33;19.33;;;;;;;;;;5230022;28;20043;-69
2022/10/15 01:00:29;;;;;;;20.55;17.25;;;;;;;;;;5248026;28;20028;-68
2022/10/15 01:03:00;;;;;;;21.40;19.70;;;;;;;;;;5230223;28;20453;-69
2022/10/15 01:05:30;;;;;;;21.83;20.00;;;;;;;;;;5229886;28;20017;-69
2022/10/15 01:08:01;;;;;;;20.17;18.20;;;;;;;;;;5230078;28;20020;-69
2022/10/15 01:10:35;;;;;;;21.13;18.10;;;;;;;;;;5229947;28;20032;-69
2022/10/15 01:13:05;;;;;;;23.88;21.80;;;;;;;;;;5229980;28;20024;-68
2022/10/15 01:15:45;;;;;;;22.55;20.38;;;;;;;;;;5229642;28;20028;-68
2022/10/15 01:18:26;;;;;;;21.33;19.48;;;;;;;;;;5228806;28;20078;-69
2022/10/15 01:20:59;;;;;;;21.13;19.02;;;;;;;;;;5247538;28;20123;-69
2022/10/15 01:23:29;;;;;;;19.80;18.00;;;;;;;;;;5229448;28;20067;-69
2022/10/15 01:26:06;;;;;;;19.58;18.02;;;;;;;;;;5229790;28;20044;-69
2022/10/15 01:29:05;;;;;;;23.52;21.63;;;;;;;;;;5229617;28;20522;-68
2022/10/15 01:31:38;;;;;;;23.63;21.73;;;;;;;;;;5229544;28;20020;-68
2022/10/15 01:34:18;;;;;;;24.13;21.80;;;;;;;;;;5229271;28;20115;-68
2022/10/15 01:36:51;;;;;;;17.35;16.08;;;;;;;;;;5229400;28;20017;-68
2022/10/15 01:39:29;;;;;;;21.70;18.23;;;;;;;;;;5229125;28;20032;-68
2022/10/15 01:42:01;;;;;;;22.70;20.80;;;;;;;;;;5229358;28;20028;-69
2022/10/15 01:44:35;;;;;;;24.35;21.90;;;;;;;;;;5228807;28;20020;-71
2022/10/15 01:47:07;;;;;;;23.25;21.02;;;;;;;;;;5229216;28;20032;-69
2022/10/15 01:49:40;;;;;;;24.45;22.02;;;;;;;;;;5228851;28;20395;-69
2022/10/15 01:52:16;;;;;;;28.83;22.42;;;;;;;;;;5229128;28;20106;-68
2022/10/15 01:54:47;;;;;;;22.33;19.45;;;;;;;;;;5228474;28;20063;-69
2022/10/15 01:57:18;;;;;;;23.40;21.17;;;;;;;;;;5247080;28;20016;-69
2022/10/15 01:59:48;;;;;;;26.20;23.05;;;;;;;;;;5246729;28;20025;-69
2022/10/15 02:02:19;;;;;;;27.45;22.73;;;;;;;;;;5228745;28;20029;-68
2022/10/15 02:04:49;;;;;;;26.17;23.52;;;;;;;;;;5228707;28;20025;-68
2022/10/15 02:07:29;;;;;;;27.48;24.75;;;;;;;;;;5246954;28;20028;-68
2022/10/15 02:10:04;;;;;;;28.42;25.40;;;;;;;;;;5228610;28;20439;-68
2022/10/15 02:12:53;;;;;;;24.38;22.08;;;;;;;;;;5228938;28;20070;-68
2022/10/15 02:15:42;;;;;;;28.52;25.48;;;;;;;;;;5228422;28;20542;-68
2022/10/15 02:18:20;;;;;;;26.70;24.25;;;;;;;;;;5228228;28;20488;-68
2022/10/15 02:20:54;;;;;;;31.85;28.67;;;;;;;;;;5246268;28;20112;-69
2022/10/15 02:23:25;;;;;;;30.02;27.25;;;;;;;;;;5228048;28;20447;-69
2022/10/15 02:25:56;;;;;;;34.30;26.08;;;;;;;;;;5228270;28;20158;-68
2022/10/15 02:28:27;;;;;;;31.10;27.98;;;;;;;;;;5228664;28;20084;-68
2022/10/15 02:30:58;;;;;;;33.33;30.15;;;;;;;;;;5227868;28;20024;-68
2022/10/15 02:33:29;;;;;;;29.35;26.42;;;;;;;;;;5228129;28;20023;-68
2022/10/15 02:36:00;;;;;;;30.85;28.05;;;;;;;;;;5228197;28;20463;-68
2022/10/15 02:38:31;;;;;;;29.80;26.73;;;;;;;;;;5228154;28;20115;-70
2022/10/15 02:41:02;;;;;;;29.80;26.65;;;;;;;;;;5227912;28;20017;-68
2022/10/15 02:43:34;;;;;;;33.67;28.35;;;;;;;;;;5227891;28;20025;-68
2022/10/15 02:46:07;;;;;;;35.30;31.30;;;;;;;;;;5228094;28;20017;-68
2022/10/15 02:48:37;;;;;;;31.73;28.63;;;;;;;;;;5227958;28;20043;-68
2022/10/15 02:51:07;;;;;;;36.45;31.05;;;;;;;;;;5228071;28;20024;-68
2022/10/15 02:53:38;;;;;;;33.97;30.85;;;;;;;;;;5227853;28;20029;-68
2022/10/15 02:56:08;;;;;;;34.72;31.30;;;;;;;;;;5256808;22;20050;-60
2022/10/15 02:58:38;;;;;;;35.90;32.50;;;;;;;;;;5263071;28;20051;-62
2022/10/15 03:01:08;;;;;;;35.50;32.13;;;;;;;;;;5263173;28;20024;-62
2022/10/15 03:03:39;;;;;;;37.22;33.40;;;;;;;;;;5246190;28;20196;-61
2022/10/15 03:06:09;;;;;;;38.05;34.60;;;;;;;;;;5246642;28;20046;-61
2022/10/15 03:08:41;;;;;;;37.00;33.17;;;;;;;;;;5264810;28;20066;-62
2022/10/15 03:11:11;;;;;;;36.45;32.80;;;;;;;;;;5246060;28;20027;-62
2022/10/15 03:13:41;;;;;;;35.80;32.03;;;;;;;;;;5246027;28;20480;-61
2022/10/15 03:16:12;;;;;;;35.92;32.45;;;;;;;;;;5246235;28;20044;-60
2022/10/15 03:18:42;;;;;;;34.38;31.23;;;;;;;;;;5263137;28;20042;-60
2022/10/15 03:21:12;;;;;;;38.53;34.88;;;;;;;;;;5246013;28;20043;-62
2022/10/15 03:23:43;;;;;;;34.45;30.40;;;;;;;;;;5246110;28;20383;-61
2022/10/15 03:26:13;;;;;;;41.58;35.83;;;;;;;;;;5246472;28;20020;-62
2022/10/15 03:28:43;;;;;;;41.08;34.90;;;;;;;;;;5246331;28;20115;-60
2022/10/15 03:31:13;;;;;;;40.13;36.05;;;;;;;;;;5246141;28;20051;-59
2022/10/15 03:33:44;;;;;;;40.35;35.40;;;;;;;;;;5264395;28;20103;-59
2022/10/15 03:36:14;;;;;;;39.47;35.47;;;;;;;;;;5264259;28;20014;-60
2022/10/15 03:38:44;;;;;;;36.67;33.08;;;;;;;;;;5246039;28;20479;-60
2022/10/15 03:41:14;;;;;;;38.10;34.42;;;;;;;;;;5264941;28;20102;-59
2022/10/15 03:43:45;;;;;;;37.17;33.72;;;;;;;;;;5268096;28;20039;-62
2022/10/15 03:46:15;;;;;;;32.95;29.92;;;;;;;;;;5250238;28;20432;-61
2022/10/15 03:48:49;;;;;;;37.28;33.35;;;;;;;;;;5250188;28;20107;-61
2022/10/15 03:51:19;;;;;;;34.60;31.45;;;;;;;;;;5268101;28;20020;-61
2022/10/15 03:53:49;;;;;;;41.97;32.13;;;;;;;;;;5249663;28;20107;-62
2022/10/15 03:56:20;;;;;;;33.92;30.73;;;;;;;;;;5266655;28;20043;-61
2022/10/15 03:58:50;;;;;;;34.90;31.55;;;;;;;;;;5249808;28;20114;-61
2022/10/15 04:01:20;;;;;;;33.50;30.25;;;;;;;;;;5266613;28;20024;-63
2022/10/15 04:03:52;;;;;;;33.80;30.65;;;;;;;;;;5249276;28;20020;-62
2022/10/15 04:06:22;;;;;;;32.42;29.20;;;;;;;;;;5266899;28;20144;-63
2022/10/15 04:08:52;;;;;;;30.27;27.17;;;;;;;;;;5249577;28;20026;-61
2022/10/15 04:11:22;;;;;;;33.75;29.92;;;;;;;;;;5268135;28;20024;-64
2022/10/15 04:13:53;;;;;;;48.42;30.52;;;;;;;;;;5249446;28;20028;-63
2022/10/15 04:16:23;;;;;;;31.55;28.60;;;;;;;;;;5268284;28;20102;-64
2022/10/15 04:18:53;;;;;;;31.13;27.75;;;;;;;;;;5249830;28;20384;-63
2022/10/15 04:21:24;;;;;;;34.05;30.13;;;;;;;;;;5249688;28;20073;-62
2022/10/15 04:23:54;;;;;;;35.75;32.17;;;;;;;;;;5266371;28;20099;-63
2022/10/15 04:26:25;;;;;;;35.05;31.65;;;;;;;;;;5267997;28;20020;-63
2022/10/15 04:28:55;;;;;;;36.38;32.65;;;;;;;;;;5249639;28;20012;-63
2022/10/15 04:31:25;;;;;;;37.05;33.10;;;;;;;;;;5249612;28;20342;-64
2022/10/15 04:33:56;;;;;;;37.92;34.08;;;;;;;;;;5267434;28;20023;-63
2022/10/15 04:36:26;;;;;;;35.40;31.45;;;;;;;;;;5249173;28;20115;-63
2022/10/15 04:38:56;;;;;;;39.05;31.75;;;;;;;;;;5249218;28;20024;-63
2022/10/15 04:41:27;;;;;;;35.55;29.25;;;;;;;;;;5249012;28;20027;-63
2022/10/15 04:43:57;;;;;;;30.38;27.40;;;;;;;;;;5249115;28;20016;-63
2022/10/15 04:46:27;;;;;;;39.45;31.75;;;;;;;;;;5249277;28;20164;-62
2022/10/15 04:48:57;;;;;;;35.55;30.10;;;;;;;;;;5249178;28;20489;-62
2022/10/15 04:51:28;;;;;;;32.75;29.65;;;;;;;;;;5267632;28;20016;-61
2022/10/15 04:54:00;;;;;;;32.13;28.67;;;;;;;;;;5247339;28;20016;-60
2022/10/15 04:56:30;;;;;;;33.72;30.25;;;;;;;;;;5249017;28;20522;-64
2022/10/15 04:59:05;;;;;;;36.40;32.47;;;;;;;;;;5248797;28;20051;-61
2022/10/15 05:01:35;;;;;;;28.27;25.58;;;;;;;;;;5265963;28;20115;-63
2022/10/15 05:04:05;;;;;;;32.00;24.48;;;;;;;;;;5248745;28;20440;-60
2022/10/15 05:06:36;;;;;;;28.98;25.88;;;;;;;;;;5248713;28;20016;-63
2022/10/15 05:09:06;;;;;;;33.80;27.70;;;;;;;;;;5249128;28;20004;-64
2022/10/15 05:11:37;;;;;;;29.02;25.80;;;;;;;;;;5248695;28;20028;-64
2022/10/15 05:14:07;;;;;;;26.85;23.75;;;;;;;;;;5248111;28;20024;-62
2022/10/15 05:16:37;;;;;;;30.42;27.60;;;;;;;;;;5248484;28;20388;-62
2022/10/15 05:19:09;;;;;;;30.35;27.15;;;;;;;;;;5267245;28;20031;-63
2022/10/15 05:21:40;;;;;;;33.25;29.98;;;;;;;;;;5248100;28;20024;-61
2022/10/15 05:24:10;;;;;;;29.98;27.05;;;;;;;;;;5248103;28;20341;-61
2022/10/15 05:26:40;;;;;;;30.92;27.88;;;;;;;;;;5248144;28;20020;-61
2022/10/15 05:29:11;;;;;;;32.10;28.73;;;;;;;;;;5247794;28;20012;-61
2022/10/15 05:31:41;;;;;;;32.42;29.25;;;;;;;;;;5248102;28;20107;-63
2022/10/15 05:34:11;;;;;;;30.63;27.42;;;;;;;;;;5247527;28;20043;-63
2022/10/15 05:36:42;;;;;;;35.20;31.98;;;;;;;;;;5247940;28;20039;-63
2022/10/15 05:39:13;;;;;;;30.45;25.60;;;;;;;;;;5264631;28;20409;-62
2022/10/15 05:41:43;;;;;;;32.65;29.30;;;;;;;;;;5247448;28;20034;-61
2022/10/15 05:44:13;;;;;;;29.85;27.05;;;;;;;;;;5265798;28;20016;-61
2022/10/15 05:46:44;;;;;;;33.50;29.25;;;;;;;;;;5247698;28;20062;-63
2022/10/15 05:49:14;;;;;;;29.67;26.63;;;;;;;;;;5247535;28;20471;-63
2022/10/15 05:51:44;;;;;;;32.10;28.95;;;;;;;;;;5247565;28;20060;-61
2022/10/15 05:54:15;;;;;;;31.17;27.80;;;;;;;;;;5246898;28;20020;-61
2022/10/15 05:56:45;;;;;;;30.52;27.35;;;;;;;;;;5247483;28;20038;-60
2022/10/15 05:59:15;;;;;;;30.42;27.20;;;;;;;;;;5265462;28;20020;-61
2022/10/15 06:01:45;;;;;;;30.63;27.42;;;;;;;;;;5247390;28;20031;-61
2022/10/15 06:04:16;;;;;;;34.72;27.92;;;;;;;;;;5246916;28;20125;-61
2022/10/15 06:06:46;;;;;;;31.17;27.58;;;;;;;;;;5239062;28;20073;-61
2022/10/15 06:09:35;;;;;;;36.30;30.55;;;;;;;;;;5236641;28;20054;-62
2022/10/15 06:12:05;;;;;;;28.98;25.77;;;;;;;;;;5246326;28;20024;-62
2022/10/15 06:14:35;;;;;;;29.50;26.60;;;;;;;;;;5226551;28;20028;-62
2022/10/15 06:17:05;;;;;;;29.45;26.48;;;;;;;;;;5226953;28;20131;-62
2022/10/15 06:19:36;;;;;;;27.25;24.58;;;;;;;;;;5224210;28;20381;-62
2022/10/15 06:22:06;;;;;;;25.45;22.67;;;;;;;;;;5228342;28;20025;-62
2022/10/15 06:24:36;;;;;;;27.23;24.58;;;;;;;;;;5229098;28;20063;-63
2022/10/15 06:27:08;;;;;;;28.65;22.83;;;;;;;;;;5229657;28;20028;-62
2022/10/15 06:29:39;;;;;;;27.58;24.50;;;;;;;;;;5228379;28;20430;-61
2022/10/15 06:32:09;;;;;;;26.85;24.20;;;;;;;;;;5228718;28;20021;-62
2022/10/15 06:34:40;;;;;;;22.30;20.30;;;;;;;;;;5228381;28;20241;-62
2022/10/15 06:37:10;;;;;;;26.65;21.67;;;;;;;;;;5227200;28;20032;-62
2022/10/15 06:39:40;;;;;;;24.58;20.95;;;;;;;;;;5228157;28;20067;-61
2022/10/15 06:42:11;;;;;;;23.25;20.88;;;;;;;;;;5228404;28;20016;-61
2022/10/15 06:44:42;;;;;;;23.27;20.90;;;;;;;;;;5212284;28;20040;-61
2022/10/15 06:47:12;;;;;;;21.92;19.50;;;;;;;;;;5228161;28;20039;-62
2022/10/15 06:49:42;;;;;;;26.48;21.05;;;;;;;;;;5228393;28;20031;-61
2022/10/15 06:52:12;;;;;;;22.00;18.33;;;;;;;;;;5228513;28;20028;-62
2022/10/15 06:54:43;;;;;;;21.88;17.50;;;;;;;;;;5228107;28;20071;-62
2022/10/15 06:57:13;;;;;;;19.98;17.83;;;;;;;;;;5246644;28;20374;-62
2022/10/15 06:59:43;;;;;;;20.83;18.65;;;;;;;;;;5229061;28;20478;-62
2022/10/15 07:02:14;;;;;;;19.88;17.88;;;;;;;;;;5229789;28;20021;-62
2022/10/15 07:04:45;;;;;;;23.67;19.92;;;;;;;;;;5228460;28;20095;-62
2022/10/15 07:07:15;;;;;;;24.92;17.20;;;;;;;;;;5248257;28;20588;-62
2022/10/15 07:09:46;;;;;;;15.43;13.65;;;;;;;;;;5229814;28;20154;-60
2022/10/15 07:12:16;;;;;;;17.60;15.93;;;;;;;;;;5241877;28;20107;-61
2022/10/15 07:14:48;;;;;;;14.77;13.30;;;;;;;;;;5249065;28;20016;-60
2022/10/15 07:17:18;;;;;;;20.02;14.95;;;;;;;;;;5247681;28;20047;-63
2022/10/15 07:19:48;;;;;;;15.55;13.98;;;;;;;;;;5244784;28;20032;-63
2022/10/15 07:22:18;;;;;;;15.02;13.80;;;;;;;;;;5248149;28;20456;-63
2022/10/15 07:24:49;;;;;;;17.60;14.85;;;;;;;;;;5267397;28;20032;-63
2022/10/15 07:27:19;;;;;;;13.85;12.60;;;;;;;;;;5249628;28;20035;-62
2022/10/15 07:29:49;;;;;;;14.63;13.13;;;;;;;;;;5249317;28;20154;-62
2022/10/15 07:32:20;;;;;;;13.68;12.48;;;;;;;;;;5251437;28;20047;-62
2022/10/15 07:34:50;;;;;;;14.55;13.07;;;;;;;;;;5269636;28;20028;-62
2022/10/15 07:37:20;;;;;;;14.13;12.85;;;;;;;;;;5251617;28;20020;-62
2022/10/15 07:39:51;;;;;;;13.07;11.98;;;;;;;;;;5249550;28;20012;-65
2022/10/15 07:42:21;;;;;;;14.05;12.55;;;;;;;;;;5231225;28;20448;-62
2022/10/15 07:44:51;;;;;;;13.57;11.80;;;;;;;;;;5230601;28;20031;-62
2022/10/15 07:47:22;;;;;;;13.57;12.43;;;;;;;;;;5229397;28;20044;-62
2022/10/15 07:49:52;;;;;;;12.52;11.57;;;;;;;;;;5228621;28;20009;-62
2022/10/15 07:52:22;;;;;;;13.95;12.60;;;;;;;;;;5228697;28;20034;-60
2022/10/15 07:54:53;;;;;;;11.93;10.93;;;;;;;;;;5228146;28;20469;-62
2022/10/15 07:57:26;;;;;;;11.73;10.15;;;;;;;;;;5228174;28;20056;-61
2022/10/15 07:59:56;;;;;;;8.32;7.60;;;;;;;;;;5227522;28;20088;-63
2022/10/15 08:02:27;;;;;;;9.63;8.63;;;;;;;;;;5245388;28;20023;-62
2022/10/15 08:04:57;;;;;;;9.82;8.93;;;;;;;;;;5227579;28;20020;-62
2022/10/15 08:07:27;;;;;;;19.15;11.13;;;;;;;;;;5244327;28;20032;-60
2022/10/15 08:09:57;;;;;;;11.63;10.13;;;;;;;;;;5225742;28;20017;-61
2022/10/15 08:12:28;;;;;;;9.13;8.40;;;;;;;;;;5226005;28;20021;-61
2022/10/15 08:14:58;;;;;;;9.88;9.18;;;;;;;;;;5225937;28;20364;-61
2022/10/15 08:17:28;;;;;;;9.15;8.27;;;;;;;;;;5243758;28;20051;-60
2022/10/15 08:19:59;;;;;;;8.88;8.32;;;;;;;;;;5235691;28;20028;-61
2022/10/15 08:22:29;;;;;;;6.63;6.13;;;;;;;;;;5247074;28;20020;-61
2022/10/15 08:24:59;;;;;;;7.03;6.38;;;;;;;;;;5247430;28;20206;-61
2022/10/15 08:27:29;;;;;;;7.00;6.50;;;;;;;;;;5248690;28;20016;-62
2022/10/15 08:30:00;;;;;;;8.02;6.40;;;;;;;;;;5250769;28;20131;-62
2022/10/15 08:32:30;;;;;;;6.55;5.95;;;;;;;;;;5251094;28;20131;-62
2022/10/15 08:35:00;;;;;;;5.63;5.22;;;;;;;;;;5249961;28;20471;-62
2022/10/15 08:37:31;;;;;;;5.90;5.50;;;;;;;;;;5268140;28;20054;-62
2022/10/15 08:40:02;;;;;;;5.97;5.63;;;;;;;;;;5249870;28;20020;-62
2022/10/15 08:42:36;;;;;;;5.65;5.18;;;;;;;;;;5249677;28;20482;-63
2022/10/15 08:45:23;;;;;;;5.90;5.40;;;;;;;;;;5270280;28;20391;-62
2022/10/15 08:47:53;;;;;;;5.03;4.63;;;;;;;;;;5252112;28;20016;-63
2022/10/15 08:50:42;;;;;;;5.68;5.28;;;;;;;;;;5252272;28;20340;-63
2022/10/15 08:53:14;;;;;;;5.68;5.13;;;;;;;;;;5252014;28;20024;-62
2022/10/15 08:55:47;;;;;;;4.57;4.30;;;;;;;;;;5254144;22;20454;-64
2022/10/15 08:58:42;;;;;;;5.80;5.35;;;;;;;;;;5219981;28;20033;-66
2022/10/15 09:01:19;;;;;;;4.78;4.38;;;;;;;;;;5205760;28;20120;-64
2022/10/15 09:03:57;;;;;;;5.45;5.05;;;;;;;;;;5206612;28;20021;-65
2022/10/15 09:06:35;;;;;;;4.55;4.25;;;;;;;;;;5210025;28;20013;-65
2022/10/15 09:09:10;;;;;;;4.85;4.45;;;;;;;;;;5227725;28;20027;-64
2022/10/15 09:11:58;;;;;;;3.85;3.60;;;;;;;;;;5209739;28;20021;-65
2022/10/15 09:14:30;;;;;;;4.60;4.30;;;;;;;;;;5209753;28;20029;-65
2022/10/15 09:17:04;;;;;;;3.30;3.10;;;;;;;;;;5209300;28;20025;-65
2022/10/15 09:19:36;;;;;;;3.75;3.55;;;;;;;;;;5209718;28;20086;-64
2022/10/15 09:22:10;;;;;;;3.35;3.15;;;;;;;;;;5227545;28;20091;-65
2022/10/15 09:24:41;;;;;;;3.60;3.40;;;;;;;;;;5208886;28;20021;-65
2022/10/15 09:27:16;;;;;;;4.82;4.40;;;;;;;;;;5208748;28;20086;-65
2022/10/15 09:29:46;;;;;;;3.75;3.45;;;;;;;;;;5227655;28;20009;-64
2022/10/15 09:32:19;;;;;;;2.70;2.60;;;;;;;;;;5209311;28;20438;-65
2022/10/15 09:34:53;;;;;;;2.92;2.75;;;;;;;;;;5209188;28;20020;-65
2022/10/15 09:37:29;;;;;;;3.85;3.65;;;;;;;;;;5209388;28;20056;-64
2022/10/15 09:40:03;;;;;;;3.10;2.90;;;;;;;;;;5208484;28;20560;-66
2022/10/15 09:42:36;;;;;;;2.78;2.67;;;;;;;;;;5209142;28;20060;-66
2022/10/15 09:45:12;;;;;;;1.80;1.70;;;;;;;;;;5209080;28;20020;-65
2022/10/15 09:47:43;;;;;;;1.30;1.30;;;;;;;;;;5209543;28;20032;-63
2022/10/15 09:50:14;;;;;;;1.63;1.63;;;;;;;;;;5208903;28;20373;-64
2022/10/15 09:52:48;;;;;;;1.45;1.45;;;;;;;;;;5208745;28;20024;-65
2022/10/15 09:55:38;;;;;;;1.70;1.70;;;;;;;;;;5208386;28;20782;-66
2022/10/15 09:58:13;;;;;;;1.75;1.65;;;;;;;;;;5209217;28;20047;-67
2022/10/15 10:00:50;;;;;;;1.50;1.50;;;;;;;;;;5208647;28;20054;-65
2022/10/15 10:03:21;;;;;;;1.50;1.40;;;;;;;;;;5217341;28;20025;-64
2022/10/15 10:05:58;;;;;;;1.60;1.60;;;;;;;;;;5205379;28;20021;-64
2022/10/15 10:08:40;;;;;;;1.33;1.30;;;;;;;;;;5187963;28;20059;-64
2022/10/15 10:11:11;;;;;;;1.40;1.40;;;;;;;;;;5188009;28;20052;-63
2022/10/15 10:13:45;;;;;;;1.55;1.45;;;;;;;;;;5187696;28;20584;-67
2022/10/15 10:16:16;;;;;;;1.67;1.58;;;;;;;;;;5187819;28;20029;-64
2022/10/15 10:19:02;;;;;;;1.30;1.30;;;;;;;;;;5205552;28;20022;-64
2022/10/15 10:21:34;;;;;;;3.25;1.35;;;;;;;;;;5187377;28;20030;-64
2022/10/15 10:24:19;;;;;;;1.02;1.02;;;;;;;;;;5187541;28;20078;-65
2022/10/15 10:26:50;;;;;;;1.88;1.77;;;;;;;;;;5187675;28;20028;-65
2022/10/15 10:29:21;;;;;;;2.38;2.20;;;;;;;;;;5187823;28;20476;-65
2022/10/15 10:31:52;;;;;;;1.13;1.13;;;;;;;;;;5205820;28;20129;-63
2022/10/15 10:34:26;;;;;;;1.20;1.20;;;;;;;;;;5203913;28;20108;-65
2022/10/15 10:37:00;;;;;;;1.75;1.65;;;;;;;;;;5187775;28;20094;-63
2022/10/15 10:39:32;;;;;;;2.88;1.75;;;;;;;;;;5187870;28;20031;-64
2022/10/15 10:42:03;;;;;;;1.38;1.27;;;;;;;;;;5185777;28;20397;-63
2022/10/15 10:44:35;;;;;;;1.80;1.40;;;;;;;;;;5201150;28;20025;-63
2022/10/15 10:47:05;;;;;;;1.77;1.67;;;;;;;;;;5207961;28;20048;-67
2022/10/15 10:49:37;;;;;;;1.83;1.73;;;;;;;;;;5207665;28;20017;-63
2022/10/15 10:52:26;;;;;;;1.75;1.73;;;;;;;;;;5208429;28;20025;-65
2022/10/15 10:54:59;;;;;;;2.10;1.92;;;;;;;;;;5208080;28;20476;-63
2022/10/15 10:57:44;;;;;;;1.83;1.73;;;;;;;;;;5208110;28;20025;-66
2022/10/15 11:00:38;;;;;;;2.25;2.15;;;;;;;;;;5225446;28;20090;-64
2022/10/15 11:03:31;;;;;;;1.80;1.70;;;;;;;;;;5217459;28;20067;-64
2022/10/15 11:06:11;;;;;;;3.20;2.50;;;;;;;;;;5199736;28;20120;-64
2022/10/15 11:08:58;;;;;;;3.95;2.70;;;;;;;;;;5207084;28;20082;-64
2022/10/15 11:11:32;;;;;;;2.22;2.13;;;;;;;;;;5187579;28;20025;-65
2022/10/15 11:14:25;;;;;;;2.72;2.53;;;;;;;;;;5204270;28;20365;-63
2022/10/15 11:17:02;;;;;;;4.20;2.28;;;;;;;;;;5205736;28;20025;-64
2022/10/15 11:19:35;;;;;;;2.38;2.17;;;;;;;;;;5212299;28;20484;-67
2022/10/15 11:22:06;;;;;;;2.53;2.33;;;;;;;;;;5225204;28;20048;-63
2022/10/15 11:24:45;;;;;;;1.55;1.45;;;;;;;;;;5206696;28;20437;-64
2022/10/15 11:27:34;;;;;;;1.80;1.70;;;;;;;;;;5207237;28;20017;-65
2022/10/15 11:30:23;;;;;;;1.42;1.42;;;;;;;;;;5225198;28;20079;-64
2022/10/15 11:33:18;;;;;;;2.05;1.85;;;;;;;;;;5207443;28;20115;-64
2022/10/15 11:35:53;;;;;;;1.77;1.77;;;;;;;;;;5207145;28;20388;-65
2022/10/15 11:38:29;;;;;;;1.67;1.67;;;;;;;;;;5207407;28;20028;-65
2022/10/15 11:41:02;;;;;;;3.25;2.55;;;;;;;;;;5206960;28;20384;-63
2022/10/15 11:43:32;;;;;;;1.40;1.40;;;;;;;;;;5206765;28;20058;-65
2022/10/15 11:46:21;;;;;;;2.25;2.15;;;;;;;;;;5198496;28;20018;-66
2022/10/15 11:49:18;;;;;;;2.75;2.60;;;;;;;;;;5204421;28;20026;-65
2022/10/15 11:51:59;;;;;;;1.58;1.48;;;;;;;;;;5164021;28;20049;-65
2022/10/15 11:54:33;;;;;;;2.42;2.25;;;;;;;;;;5185784;28;20022;-65
2022/10/15 11:57:07;;;;;;;2.10;2.00;;;;;;;;;;5186756;28;20029;-64
2022/10/15 11:59:50;;;;;;;3.10;1.75;;;;;;;;;;5189448;28;20032;-64
2022/10/15 12:02:20;;;;;;;6.30;3.15;;;;;;;;;;5226156;28;20017;-65
2022/10/15 12:04:52;;;;;;;1.80;1.70;;;;;;;;;;5207908;28;20021;-65
2022/10/15 12:07:24;;;;;;;2.70;2.60;;;;;;;;;;5206991;28;20033;-64
2022/10/15 12:09:59;;;;;;;2.42;2.33;;;;;;;;;;5190603;28;20021;-65
2022/10/15 12:12:36;;;;;;;2.17;2.08;;;;;;;;;;5190184;28;20044;-64
2022/10/15 12:15:13;;;;;;;2.30;2.20;;;;;;;;;;5190341;28;20025;-64
2022/10/15 12:17:46;;;;;;;2.30;2.10;;;;;;;;;;5190118;28;20017;-66
2022/10/15 12:20:18;;;;;;;2.40;2.30;;;;;;;;;;5190363;28;20412;-64
2022/10/15 12:22:53;;;;;;;2.03;1.92;;;;;;;;;;5207521;28;20057;-66
2022/10/15 12:25:33;;;;;;;2.13;2.03;;;;;;;;;;5189287;28;20070;-64
2022/10/15 12:28:03;;;;;;;2.05;1.98;;;;;;;;;;5191993;28;20117;-63
2022/10/15 12:30:35;;;;;;;2.20;2.10;;;;;;;;;;5189452;28;20140;-64
2022/10/15 12:33:28;;;;;;;2.17;2.08;;;;;;;;;;5189343;28;20025;-63
2022/10/15 12:36:08;;;;;;;2.30;2.20;;;;;;;;;;5190031;28;20021;-64
2022/10/15 12:38:39;;;;;;;1.92;1.83;;;;;;;;;;5190286;28;20475;-64
2022/10/15 12:41:11;;;;;;;2.05;1.95;;;;;;;;;;5189512;28;20032;-64
2022/10/15 12:43:52;;;;;;;2.10;2.00;;;;;;;;;;5189792;28;20108;-64
2022/10/15 12:46:34;;;;;;;1.85;1.60;;;;;;;;;;5203500;28;20013;-63
2022/10/15 12:49:23;;;;;;;2.15;1.55;;;;;;;;;;5194160;28;20377;-64
2022/10/15 12:51:54;;;;;;;1.58;1.58;;;;;;;;;;5206291;28;20090;-66
2022/10/15 12:54:35;;;;;;;2.13;2.03;;;;;;;;;;5209638;28;20020;-64
2022/10/15 12:57:44;;;;;;;2.22;2.05;;;;;;;;;;5210201;28;20120;-64
2022/10/15 13:00:23;;;;;;;1.58;1.50;;;;;;;;;;5167609;28;20485;-64
2022/10/15 13:02:54;;;;;;;1.58;1.48;;;;;;;;;;5167411;28;20080;-63
2022/10/15 13:05:26;;;;;;;2.70;2.08;;;;;;;;;;5192930;28;20076;-65
2022/10/15 13:07:57;;;;;;;1.20;1.20;;;;;;;;;;5209650;28;20242;-65
2022/10/15 13:10:27;;;;;;;1.05;1.05;;;;;;;;;;5227545;28;20066;-63
2022/10/15 13:13:02;;;;;;;1.80;1.70;;;;;;;;;;5208603;28;20021;-64
2022/10/15 13:15:33;;;;;;;1.30;1.30;;;;;;;;;;5187840;28;20065;-64
2022/10/15 13:18:09;;;;;;;2.15;2.05;;;;;;;;;;5188924;28;20861;-65
2022/10/15 13:20:41;;;;;;;1.85;1.85;;;;;;;;;;5192177;28;20024;-66
2022/10/15 13:23:20;;;;;;;2.08;2.00;;;;;;;;;;5209524;28;20024;-64
2022/10/15 13:25:51;;;;;;;1.83;1.63;;;;;;;;;;5208827;28;20104;-63
2022/10/15 13:28:38;;;;;;;1.90;1.83;;;;;;;;;;5227199;28;20174;-64
2022/10/15 13:31:21;;;;;;;2.90;1.85;;;;;;;;;;5209230;28;20017;-64
2022/10/15 13:33:53;;;;;;;2.10;2.00;;;;;;;;;;5209191;28;20082;-66
2022/10/15 13:36:29;;;;;;;1.48;1.48;;;;;;;;;;5208972;28;20031;-64
2022/10/15 13:39:04;;;;;;;1.73;1.73;;;;;;;;;;5208908;28;20063;-64
2022/10/15 13:41:36;;;;;;;1.73;1.63;;;;;;;;;;5208449;28;20016;-65
2022/10/15 13:44:18;;;;;;;1.83;1.70;;;;;;;;;;5208316;28;20487;-64
2022/10/15 13:46:48;;;;;;;1.77;1.67;;;;;;;;;;5209377;28;20056;-63
2022/10/15 13:49:18;;;;;;;7.30;1.40;;;;;;;;;;5209009;28;20056;-64
2022/10/15 13:51:50;;;;;;;1.58;1.48;;;;;;;;;;5242482;28;20214;-64
2022/10/15 13:54:28;;;;;;;2.63;2.13;;;;;;;;;;5208626;28;20025;-63
2022/10/15 13:57:00;;;;;;;3.22;1.75;;;;;;;;;;5208773;28;20033;-64
2022/10/15 13:59:31;;;;;;;1.80;1.70;;;;;;;;;;5209092;28;20032;-64
2022/10/15 14:02:03;;;;;;;2.10;1.95;;;;;;;;;;5225184;28;20025;-65
2022/10/15 14:04:33;;;;;;;2.03;1.92;;;;;;;;;;5208677;28;20591;-63
2022/10/15 14:07:19;;;;;;;4.55;1.80;;;;;;;;;;5241949;28;20100;-64
2022/10/15 14:09:50;;;;;;;1.35;1.35;;;;;;;;;;5208544;28;20078;-63
2022/10/15 14:12:20;;;;;;;1.48;1.45;;;;;;;;;;5208576;28;20021;-63
2022/10/15 14:14:50;;;;;;;5.38;2.67;;;;;;;;;;5208613;28;20055;-63
2022/10/15 14:17:22;;;;;;;1.58;1.48;;;;;;;;;;5208810;28;20031;-63
2022/10/15 14:19:54;;;;;;;2.47;1.00;;;;;;;;;;5208009;28;20167;-63
2022/10/15 14:22:26;;;;;;;5.25;1.10;;;;;;;;;;5207843;28;20086;-63
2022/10/15 14:24:56;;;;;;;2.10;1.50;;;;;;;;;;5207290;28;20009;-63
2022/10/15 14:27:28;;;;;;;2.95;2.03;;;;;;;;;;5208206;28;20021;-64
2022/10/15 14:30:00;;;;;;;1.95;1.48;;;;;;;;;;5207911;28;20017;-63
2022/10/15 14:32:43;;;;;;;1.95;1.95;;;;;;;;;;5207601;28;20055;-63
2022/10/15 14:35:28;;;;;;;1.30;1.20;;;;;;;;;;5225693;28;20032;-64
2022/10/15 14:38:01;;;;;;;1.85;1.60;;;;;;;;;;5208123;28;20056;-63
2022/10/15 14:40:31;;;;;;;1.50;1.40;;;;;;;;;;5207827;28;20484;-63
2022/10/15 14:43:06;;;;;;;9.35;2.50;;;;;;;;;;5207445;28;20064;-63
2022/10/15 14:45:57;;;;;;;1.42;1.42;;;;;;;;;;5207557;28;20045;-63
2022/10/15 14:48:37;;;;;;;3.05;2.17;;;;;;;;;;5207539;28;20021;-63
2022/10/15 14:51:13;;;;;;;1.60;1.50;;;;;;;;;;5207439;28;20155;-63
2022/10/15 14:53:44;;;;;;;1.40;1.40;;;;;;;;;;5207432;28;20020;-62
2022/10/15 14:56:17;;;;;;;2.15;2.05;;;;;;;;;;5207542;28;20027;-62
2022/10/15 14:58:53;;;;;;;1.50;1.40;;;;;;;;;;5225495;28;20052;-62
2022/10/15 15:01:23;;;;;;;3.90;1.90;;;;;;;;;;5207215;28;20021;-62
2022/10/15 15:03:54;;;;;;;1.95;1.85;;;;;;;;;;5206995;28;20040;-62
2022/10/15 15:06:25;;;;;;;1.95;1.85;;;;;;;;;;5207297;28;20079;-63